sensor_id;sensor_type;location;lat;lon;timestamp;P1;durP1;ratioP1;P2;durP2;ratioP2
34673;SDS011;20879;55.668;37.858;2022-08-19T00:02:05;7.88;;;4.70;;
34673;SDS011;20879;55.668;37.858;2022-08-19T00:04:35;6.90;;;4.57;;
34673;SDS011;20879;55.668;37.858;2022-08-19T00:07:05;8.38;;;5.07;;
34673;SDS011;20879;55.668;37.858;2022-08-19T00:09:37;10.73;;;4.90;;
34673;SDS011;20879;55.668;37.858;2022-08-19T00:12:06;11.57;;;4.93;;
34673;SDS011;20879;55.668;37.858;2022-08-19T00:14:36;9.10;;;4.32;;
34673;SDS011;20879;55.668;37.858;2022-08-19T00:17:07;8.67;;;4.03;;
34673;SDS011;20879;55.668;37.858;2022-08-19T00:19:37;8.88;;;4.85;;
34673;SDS011;20879;55.668;37.858;2022-08-19T00:22:06;11.30;;;3.95;;
34673;SDS011;20879;55.668;37.858;2022-08-19T00:24:38;12.35;;;4.22;;
34673;SDS011;20879;55.668;37.858;2022-08-19T00:27:16;8.88;;;3.97;;
34673;SDS011;20879;55.668;37.858;2022-08-19T00:29:52;11.38;;;4.20;;
34673;SDS011;20879;55.668;37.858;2022-08-19T00:32:21;9.90;;;4.22;;
34673;SDS011;20879;55.668;37.858;2022-08-19T00:34:52;9.68;;;4.68;;
34673;SDS011;20879;55.668;37.858;2022-08-19T00:37:22;15.55;;;4.75;;
34673;SDS011;20879;55.668;37.858;2022-08-19T00:39:54;6.57;;;4.18;;
34673;SDS011;20879;55.668;37.858;2022-08-19T00:42:24;8.77;;;4.22;;
34673;SDS011;20879;55.668;37.858;2022-08-19T00:44:54;11.43;;;3.97;;
34673;SDS011;20879;55.668;37.858;2022-08-19T00:47:23;9.05;;;4.40;;
34673;SDS011;20879;55.668;37.858;2022-08-19T00:49:53;9.32;;;4.07;;
34673;SDS011;20879;55.668;37.858;2022-08-19T00:52:27;8.80;;;4.72;;
34673;SDS011;20879;55.668;37.858;2022-08-19T00:55:00;12.18;;;4.80;;
34673;SDS011;20879;55.668;37.858;2022-08-19T00:57:32;8.90;;;4.50;;
34673;SDS011;20879;55.668;37.858;2022-08-19T01:00:06;6.60;;;4.20;;
34673;SDS011;20879;55.668;37.858;2022-08-19T01:02:39;11.63;;;4.40;;
34673;SDS011;20879;55.668;37.858;2022-08-19T01:05:10;6.65;;;4.00;;
34673;SDS011;20879;55.668;37.858;2022-08-19T01:07:44;7.80;;;4.63;;
34673;SDS011;20879;55.668;37.858;2022-08-19T01:10:17;10.35;;;5.30;;
34673;SDS011;20879;55.668;37.858;2022-08-19T01:12:51;13.00;;;5.57;;
34673;SDS011;20879;55.668;37.858;2022-08-19T01:15:22;10.52;;;4.47;;
34673;SDS011;20879;55.668;37.858;2022-08-19T01:17:55;9.50;;;4.63;;
34673;SDS011;20879;55.668;37.858;2022-08-19T01:20:28;9.60;;;4.45;;
34673;SDS011;20879;55.668;37.858;2022-08-19T01:22:59;11.95;;;4.80;;
34673;SDS011;20879;55.668;37.858;2022-08-19T01:25:29;5.95;;;3.78;;
34673;SDS011;20879;55.668;37.858;2022-08-19T01:28:05;9.88;;;5.00;;
34673;SDS011;20879;55.668;37.858;2022-08-19T01:30:37;8.88;;;5.25;;
34673;SDS011;20879;55.668;37.858;2022-08-19T01:33:10;6.65;;;4.70;;
34673;SDS011;20879;55.668;37.858;2022-08-19T01:35:40;8.65;;;5.22;;
34673;SDS011;20879;55.668;37.858;2022-08-19T01:38:19;7.38;;;4.90;;
34673;SDS011;20879;55.668;37.858;2022-08-19T01:40:50;9.32;;;4.80;;
34673;SDS011;20879;55.668;37.858;2022-08-19T01:43:20;7.05;;;4.75;;
34673;SDS011;20879;55.668;37.858;2022-08-19T01:45:51;11.60;;;5.07;;
34673;SDS011;20879;55.668;37.858;2022-08-19T01:48:20;7.82;;;3.75;;
34673;SDS011;20879;55.668;37.858;2022-08-19T01:50:49;8.88;;;4.63;;
34673;SDS011;20879;55.668;37.858;2022-08-19T01:53:22;9.00;;;4.45;;
34673;SDS011;20879;55.668;37.858;2022-08-19T01:55:56;7.28;;;4.25;;
34673;SDS011;20879;55.668;37.858;2022-08-19T01:58:27;11.07;;;4.53;;
34673;SDS011;20879;55.668;37.858;2022-08-19T02:01:03;17.83;;;5.32;;
34673;SDS011;20879;55.668;37.858;2022-08-19T02:03:33;12.10;;;4.93;;
34673;SDS011;20879;55.668;37.858;2022-08-19T02:06:03;9.00;;;5.03;;
34673;SDS011;20879;55.668;37.858;2022-08-19T02:08:36;11.45;;;5.65;;
34673;SDS011;20879;55.668;37.858;2022-08-19T02:11:07;10.75;;;5.15;;
34673;SDS011;20879;55.668;37.858;2022-08-19T02:13:36;10.40;;;5.18;;
34673;SDS011;20879;55.668;37.858;2022-08-19T02:16:05;11.13;;;5.35;;
34673;SDS011;20879;55.668;37.858;2022-08-19T02:18:35;14.60;;;5.78;;
34673;SDS011;20879;55.668;37.858;2022-08-19T02:21:04;9.52;;;5.20;;
34673;SDS011;20879;55.668;37.858;2022-08-19T02:23:35;12.45;;;5.53;;
34673;SDS011;20879;55.668;37.858;2022-08-19T02:26:05;11.05;;;5.68;;
34673;SDS011;20879;55.668;37.858;2022-08-19T02:28:34;10.55;;;5.72;;
34673;SDS011;20879;55.668;37.858;2022-08-19T02:31:08;14.05;;;6.25;;
34673;SDS011;20879;55.668;37.858;2022-08-19T02:33:42;9.75;;;5.85;;
34673;SDS011;20879;55.668;37.858;2022-08-19T02:36:13;11.82;;;5.70;;
34673;SDS011;20879;55.668;37.858;2022-08-19T02:38:49;13.35;;;5.60;;
34673;SDS011;20879;55.668;37.858;2022-08-19T02:41:21;14.88;;;5.93;;
34673;SDS011;20879;55.668;37.858;2022-08-19T02:43:54;10.88;;;5.10;;
34673;SDS011;20879;55.668;37.858;2022-08-19T02:46:44;10.88;;;5.25;;
34673;SDS011;20879;55.668;37.858;2022-08-19T02:49:18;11.48;;;5.22;;
34673;SDS011;20879;55.668;37.858;2022-08-19T02:51:47;9.02;;;5.90;;
34673;SDS011;20879;55.668;37.858;2022-08-19T02:54:19;10.70;;;5.25;;
34673;SDS011;20879;55.668;37.858;2022-08-19T02:59:17;15.38;;;6.10;;
34673;SDS011;20879;55.668;37.858;2022-08-19T03:01:48;9.75;;;5.75;;
34673;SDS011;20879;55.668;37.858;2022-08-19T03:04:18;12.07;;;5.72;;
34673;SDS011;20879;55.668;37.858;2022-08-19T03:06:49;12.53;;;5.47;;
34673;SDS011;20879;55.668;37.858;2022-08-19T03:09:21;14.20;;;6.68;;
34673;SDS011;20879;55.668;37.858;2022-08-19T03:14:19;17.52;;;6.32;;
34673;SDS011;20879;55.668;37.858;2022-08-19T03:16:50;18.58;;;6.72;;
34673;SDS011;20879;55.668;37.858;2022-08-19T03:19:20;12.88;;;6.50;;
34673;SDS011;20879;55.668;37.858;2022-08-19T03:21:50;13.20;;;6.55;;
34673;SDS011;20879;55.668;37.858;2022-08-19T03:24:22;12.82;;;6.50;;
34673;SDS011;20879;55.668;37.858;2022-08-19T03:26:53;13.27;;;6.35;;
34673;SDS011;20879;55.668;37.858;2022-08-19T03:29:25;8.98;;;5.10;;
34673;SDS011;20879;55.668;37.858;2022-08-19T03:31:57;13.57;;;5.82;;
34673;SDS011;20879;55.668;37.858;2022-08-19T03:34:31;10.95;;;5.75;;
34673;SDS011;20879;55.668;37.858;2022-08-19T03:39:35;9.82;;;6.03;;
34673;SDS011;20879;55.668;37.858;2022-08-19T03:42:06;11.20;;;5.68;;
34673;SDS011;20879;55.668;37.858;2022-08-19T03:44:55;11.20;;;5.25;;
34673;SDS011;20879;55.668;37.858;2022-08-19T03:47:26;14.83;;;5.77;;
34673;SDS011;20879;55.668;37.858;2022-08-19T03:49:56;15.07;;;5.40;;
34673;SDS011;20879;55.668;37.858;2022-08-19T03:52:26;16.73;;;5.88;;
34673;SDS011;20879;55.668;37.858;2022-08-19T03:54:57;13.25;;;5.32;;
34673;SDS011;20879;55.668;37.858;2022-08-19T03:57:28;14.23;;;6.60;;
34673;SDS011;20879;55.668;37.858;2022-08-19T03:59:58;12.10;;;5.95;;
34673;SDS011;20879;55.668;37.858;2022-08-19T04:02:39;10.73;;;5.72;;
34673;SDS011;20879;55.668;37.858;2022-08-19T04:05:26;12.43;;;6.53;;
34673;SDS011;20879;55.668;37.858;2022-08-19T04:07:57;10.03;;;5.70;;
34673;SDS011;20879;55.668;37.858;2022-08-19T04:10:28;11.02;;;6.47;;
34673;SDS011;20879;55.668;37.858;2022-08-19T04:12:58;13.73;;;7.03;;
34673;SDS011;20879;55.668;37.858;2022-08-19T04:15:27;14.93;;;6.30;;
34673;SDS011;20879;55.668;37.858;2022-08-19T04:17:59;14.82;;;6.72;;
34673;SDS011;20879;55.668;37.858;2022-08-19T04:20:29;11.55;;;6.25;;
34673;SDS011;20879;55.668;37.858;2022-08-19T04:22:58;13.35;;;6.70;;
34673;SDS011;20879;55.668;37.858;2022-08-19T04:25:33;14.40;;;6.70;;
34673;SDS011;20879;55.668;37.858;2022-08-19T04:28:04;17.90;;;7.88;;
34673;SDS011;20879;55.668;37.858;2022-08-19T04:33:08;12.95;;;6.97;;
34673;SDS011;20879;55.668;37.858;2022-08-19T04:35:39;14.23;;;7.00;;
34673;SDS011;20879;55.668;37.858;2022-08-19T04:38:11;13.43;;;6.68;;
34673;SDS011;20879;55.668;37.858;2022-08-19T04:43:27;12.02;;;6.47;;
34673;SDS011;20879;55.668;37.858;2022-08-19T04:45:57;13.15;;;6.40;;
34673;SDS011;20879;55.668;37.858;2022-08-19T04:48:27;14.70;;;6.67;;
34673;SDS011;20879;55.668;37.858;2022-08-19T04:51:00;15.82;;;6.82;;
34673;SDS011;20879;55.668;37.858;2022-08-19T04:53:34;14.90;;;6.50;;
34673;SDS011;20879;55.668;37.858;2022-08-19T04:56:08;12.45;;;6.13;;
34673;SDS011;20879;55.668;37.858;2022-08-19T04:58:39;12.80;;;6.15;;
34673;SDS011;20879;55.668;37.858;2022-08-19T05:01:11;9.93;;;5.18;;
34673;SDS011;20879;55.668;37.858;2022-08-19T05:03:45;15.48;;;6.45;;
34673;SDS011;20879;55.668;37.858;2022-08-19T05:06:15;14.98;;;6.55;;
34673;SDS011;20879;55.668;37.858;2022-08-19T05:08:47;10.73;;;5.75;;
34673;SDS011;20879;55.668;37.858;2022-08-19T05:11:19;14.35;;;5.55;;
34673;SDS011;20879;55.668;37.858;2022-08-19T05:13:52;13.85;;;5.50;;
34673;SDS011;20879;55.668;37.858;2022-08-19T05:16:22;11.20;;;5.35;;
34673;SDS011;20879;55.668;37.858;2022-08-19T05:18:52;8.43;;;3.45;;
34673;SDS011;20879;55.668;37.858;2022-08-19T05:21:35;10.75;;;5.20;;
34673;SDS011;20879;55.668;37.858;2022-08-19T05:24:19;11.70;;;5.53;;
34673;SDS011;20879;55.668;37.858;2022-08-19T05:26:51;13.48;;;5.00;;
34673;SDS011;20879;55.668;37.858;2022-08-19T05:29:23;9.75;;;4.10;;
34673;SDS011;20879;55.668;37.858;2022-08-19T05:32:02;7.68;;;5.03;;
34673;SDS011;20879;55.668;37.858;2022-08-19T05:34:35;10.18;;;4.78;;
34673;SDS011;20879;55.668;37.858;2022-08-19T05:37:05;12.13;;;5.47;;
34673;SDS011;20879;55.668;37.858;2022-08-19T05:39:35;10.43;;;4.55;;
34673;SDS011;20879;55.668;37.858;2022-08-19T05:42:09;12.43;;;4.57;;
34673;SDS011;20879;55.668;37.858;2022-08-19T05:44:41;11.18;;;4.90;;
34673;SDS011;20879;55.668;37.858;2022-08-19T05:47:14;11.68;;;4.57;;
34673;SDS011;20879;55.668;37.858;2022-08-19T05:49:45;12.68;;;4.65;;
34673;SDS011;20879;55.668;37.858;2022-08-19T05:52:19;10.55;;;4.60;;
34673;SDS011;20879;55.668;37.858;2022-08-19T05:54:52;10.73;;;4.03;;
34673;SDS011;20879;55.668;37.858;2022-08-19T05:57:24;6.63;;;4.40;;
34673;SDS011;20879;55.668;37.858;2022-08-19T05:59:55;7.45;;;5.10;;
34673;SDS011;20879;55.668;37.858;2022-08-19T06:02:27;15.70;;;5.28;;
34673;SDS011;20879;55.668;37.858;2022-08-19T06:04:58;11.43;;;4.57;;
34673;SDS011;20879;55.668;37.858;2022-08-19T06:07:28;9.50;;;4.35;;
34673;SDS011;20879;55.668;37.858;2022-08-19T06:09:58;7.85;;;4.43;;
34673;SDS011;20879;55.668;37.858;2022-08-19T06:12:31;10.95;;;4.22;;
34673;SDS011;20879;55.668;37.858;2022-08-19T06:15:03;12.68;;;4.70;;
34673;SDS011;20879;55.668;37.858;2022-08-19T06:17:34;5.22;;;3.25;;
34673;SDS011;20879;55.668;37.858;2022-08-19T06:20:04;12.82;;;5.00;;
34673;SDS011;20879;55.668;37.858;2022-08-19T06:22:37;8.02;;;4.57;;
34673;SDS011;20879;55.668;37.858;2022-08-19T06:25:11;16.33;;;5.88;;
34673;SDS011;20879;55.668;37.858;2022-08-19T06:27:44;12.07;;;5.35;;
34673;SDS011;20879;55.668;37.858;2022-08-19T06:33:04;5.88;;;3.53;;
34673;SDS011;20879;55.668;37.858;2022-08-19T06:35:37;12.57;;;4.20;;
34673;SDS011;20879;55.668;37.858;2022-08-19T06:38:07;9.65;;;4.97;;
34673;SDS011;20879;55.668;37.858;2022-08-19T06:40:39;11.48;;;5.57;;
34673;SDS011;20879;55.668;37.858;2022-08-19T06:43:11;9.50;;;5.13;;
34673;SDS011;20879;55.668;37.858;2022-08-19T06:45:44;10.18;;;4.35;;
34673;SDS011;20879;55.668;37.858;2022-08-19T06:48:14;12.40;;;4.50;;
34673;SDS011;20879;55.668;37.858;2022-08-19T06:50:44;12.88;;;5.38;;
34673;SDS011;20879;55.668;37.858;2022-08-19T06:53:13;13.90;;;5.35;;
34673;SDS011;20879;55.668;37.858;2022-08-19T06:55:44;10.30;;;4.18;;
34673;SDS011;20879;55.668;37.858;2022-08-19T06:58:15;12.52;;;5.28;;
34673;SDS011;20879;55.668;37.858;2022-08-19T07:00:45;14.00;;;5.82;;
34673;SDS011;20879;55.668;37.858;2022-08-19T07:03:15;5.88;;;3.80;;
34673;SDS011;20879;55.668;37.858;2022-08-19T07:05:45;8.73;;;4.50;;
34673;SDS011;20879;55.668;37.858;2022-08-19T07:08:15;10.63;;;5.47;;
34673;SDS011;20879;55.668;37.858;2022-08-19T07:10:44;10.68;;;5.55;;
34673;SDS011;20879;55.668;37.858;2022-08-19T07:13:17;12.13;;;4.35;;
34673;SDS011;20879;55.668;37.858;2022-08-19T07:15:47;10.82;;;4.43;;
34673;SDS011;20879;55.668;37.858;2022-08-19T07:18:18;17.52;;;4.28;;
34673;SDS011;20879;55.668;37.858;2022-08-19T07:20:48;8.90;;;4.47;;
34673;SDS011;20879;55.668;37.858;2022-08-19T07:23:18;12.10;;;4.47;;
34673;SDS011;20879;55.668;37.858;2022-08-19T07:25:49;9.13;;;4.15;;
34673;SDS011;20879;55.668;37.858;2022-08-19T07:28:21;11.90;;;3.65;;
34673;SDS011;20879;55.668;37.858;2022-08-19T07:30:53;10.65;;;4.30;;
34673;SDS011;20879;55.668;37.858;2022-08-19T07:33:22;10.45;;;4.43;;
34673;SDS011;20879;55.668;37.858;2022-08-19T07:35:53;10.07;;;4.40;;
34673;SDS011;20879;55.668;37.858;2022-08-19T07:38:22;10.05;;;4.13;;
34673;SDS011;20879;55.668;37.858;2022-08-19T07:40:52;7.60;;;4.53;;
34673;SDS011;20879;55.668;37.858;2022-08-19T07:43:24;11.85;;;4.65;;
34673;SDS011;20879;55.668;37.858;2022-08-19T07:46:00;8.32;;;4.70;;
34673;SDS011;20879;55.668;37.858;2022-08-19T07:48:30;9.95;;;5.10;;
34673;SDS011;20879;55.668;37.858;2022-08-19T07:51:00;8.43;;;4.47;;
34673;SDS011;20879;55.668;37.858;2022-08-19T07:53:31;8.57;;;4.32;;
34673;SDS011;20879;55.668;37.858;2022-08-19T07:56:05;7.15;;;3.83;;
34673;SDS011;20879;55.668;37.858;2022-08-19T07:58:38;8.88;;;4.47;;
34673;SDS011;20879;55.668;37.858;2022-08-19T08:01:10;8.77;;;4.53;;
34673;SDS011;20879;55.668;37.858;2022-08-19T08:03:42;6.88;;;3.85;;
34673;SDS011;20879;55.668;37.858;2022-08-19T08:06:25;7.07;;;4.20;;
34673;SDS011;20879;55.668;37.858;2022-08-19T08:09:08;10.25;;;3.88;;
34673;SDS011;20879;55.668;37.858;2022-08-19T08:11:45;9.75;;;3.53;;
34673;SDS011;20879;55.668;37.858;2022-08-19T08:14:20;9.60;;;4.18;;
34673;SDS011;20879;55.668;37.858;2022-08-19T08:17:00;5.57;;;2.78;;
34673;SDS011;20879;55.668;37.858;2022-08-19T08:19:37;7.38;;;3.75;;
34673;SDS011;20879;55.668;37.858;2022-08-19T08:22:07;15.13;;;3.65;;
34673;SDS011;20879;55.668;37.858;2022-08-19T08:25:00;6.93;;;3.75;;
34673;SDS011;20879;55.668;37.858;2022-08-19T08:27:35;8.40;;;3.13;;
34673;SDS011;20879;55.668;37.858;2022-08-19T08:30:08;13.85;;;3.33;;
34673;SDS011;20879;55.668;37.858;2022-08-19T08:32:39;26.73;;;3.65;;
34673;SDS011;20879;55.668;37.858;2022-08-19T08:35:12;13.52;;;2.72;;
34673;SDS011;20879;55.668;37.858;2022-08-19T08:37:43;5.00;;;2.70;;
34673;SDS011;20879;55.668;37.858;2022-08-19T08:40:17;9.38;;;3.00;;
34673;SDS011;20879;55.668;37.858;2022-08-19T08:42:51;16.55;;;4.60;;
34673;SDS011;20879;55.668;37.858;2022-08-19T08:45:49;9.55;;;3.47;;
34673;SDS011;20879;55.668;37.858;2022-08-19T08:48:22;6.88;;;3.45;;
34673;SDS011;20879;55.668;37.858;2022-08-19T08:51:00;4.72;;;2.75;;
34673;SDS011;20879;55.668;37.858;2022-08-19T08:53:35;7.35;;;3.00;;
34673;SDS011;20879;55.668;37.858;2022-08-19T08:56:08;7.85;;;2.45;;
34673;SDS011;20879;55.668;37.858;2022-08-19T08:58:45;5.05;;;3.33;;
34673;SDS011;20879;55.668;37.858;2022-08-19T09:01:22;6.63;;;3.47;;
34673;SDS011;20879;55.668;37.858;2022-08-19T09:03:56;10.52;;;3.90;;
34673;SDS011;20879;55.668;37.858;2022-08-19T09:06:32;4.80;;;2.83;;
34673;SDS011;20879;55.668;37.858;2022-08-19T09:09:12;7.75;;;3.42;;
34673;SDS011;20879;55.668;37.858;2022-08-19T09:11:48;6.97;;;2.90;;
34673;SDS011;20879;55.668;37.858;2022-08-19T09:14:32;8.15;;;4.00;;
34673;SDS011;20879;55.668;37.858;2022-08-19T09:17:26;16.08;;;2.72;;
34673;SDS011;20879;55.668;37.858;2022-08-19T09:20:03;13.70;;;3.20;;
34673;SDS011;20879;55.668;37.858;2022-08-19T09:22:36;10.02;;;3.10;;
34673;SDS011;20879;55.668;37.858;2022-08-19T09:25:09;9.73;;;3.30;;
34673;SDS011;20879;55.668;37.858;2022-08-19T09:27:41;8.27;;;2.75;;
34673;SDS011;20879;55.668;37.858;2022-08-19T09:30:13;8.50;;;2.33;;
34673;SDS011;20879;55.668;37.858;2022-08-19T09:32:46;14.18;;;4.20;;
34673;SDS011;20879;55.668;37.858;2022-08-19T09:35:19;7.03;;;3.60;;
34673;SDS011;20879;55.668;37.858;2022-08-19T09:37:50;8.82;;;3.90;;
34673;SDS011;20879;55.668;37.858;2022-08-19T09:40:25;6.35;;;2.72;;
34673;SDS011;20879;55.668;37.858;2022-08-19T09:42:56;32.40;;;4.07;;
34673;SDS011;20879;55.668;37.858;2022-08-19T09:45:37;11.63;;;3.42;;
34673;SDS011;20879;55.668;37.858;2022-08-19T09:48:08;11.15;;;2.60;;
34673;SDS011;20879;55.668;37.858;2022-08-19T09:50:44;9.95;;;2.83;;
34673;SDS011;20879;55.668;37.858;2022-08-19T09:53:18;7.00;;;2.00;;
34673;SDS011;20879;55.668;37.858;2022-08-19T09:55:51;15.15;;;3.30;;
34673;SDS011;20879;55.668;37.858;2022-08-19T09:58:20;11.93;;;2.58;;
34673;SDS011;20879;55.668;37.858;2022-08-19T10:00:54;9.38;;;2.88;;
34673;SDS011;20879;55.668;37.858;2022-08-19T10:03:26;9.45;;;2.85;;
34673;SDS011;20879;55.668;37.858;2022-08-19T10:05:57;7.03;;;2.45;;
34673;SDS011;20879;55.668;37.858;2022-08-19T10:10:59;10.98;;;2.47;;
34673;SDS011;20879;55.668;37.858;2022-08-19T10:13:50;4.93;;;2.17;;
34673;SDS011;20879;55.668;37.858;2022-08-19T10:16:20;5.78;;;2.00;;
34673;SDS011;20879;55.668;37.858;2022-08-19T10:18:58;9.10;;;2.95;;
34673;SDS011;20879;55.668;37.858;2022-08-19T10:21:32;9.23;;;2.30;;
34673;SDS011;20879;55.668;37.858;2022-08-19T10:24:03;7.63;;;2.25;;
34673;SDS011;20879;55.668;37.858;2022-08-19T10:26:36;6.18;;;1.73;;
34673;SDS011;20879;55.668;37.858;2022-08-19T10:29:08;5.25;;;1.88;;
34673;SDS011;20879;55.668;37.858;2022-08-19T10:31:38;10.07;;;2.50;;
34673;SDS011;20879;55.668;37.858;2022-08-19T10:34:29;9.98;;;2.58;;
34673;SDS011;20879;55.668;37.858;2022-08-19T10:37:00;10.20;;;2.60;;
34673;SDS011;20879;55.668;37.858;2022-08-19T10:39:29;13.32;;;2.90;;
34673;SDS011;20879;55.668;37.858;2022-08-19T10:42:09;12.95;;;2.95;;
34673;SDS011;20879;55.668;37.858;2022-08-19T10:44:39;7.25;;;2.78;;
34673;SDS011;20879;55.668;37.858;2022-08-19T10:47:08;7.07;;;2.40;;
34673;SDS011;20879;55.668;37.858;2022-08-19T10:49:54;9.60;;;2.78;;
34673;SDS011;20879;55.668;37.858;2022-08-19T10:52:40;8.30;;;2.67;;
34673;SDS011;20879;55.668;37.858;2022-08-19T10:55:17;4.72;;;1.92;;
34673;SDS011;20879;55.668;37.858;2022-08-19T10:58:01;5.80;;;2.88;;
34673;SDS011;20879;55.668;37.858;2022-08-19T11:00:31;10.07;;;3.08;;
34673;SDS011;20879;55.668;37.858;2022-08-19T11:03:00;9.50;;;2.67;;
34673;SDS011;20879;55.668;37.858;2022-08-19T11:05:31;7.40;;;2.63;;
34673;SDS011;20879;55.668;37.858;2022-08-19T11:08:06;8.10;;;2.40;;
34673;SDS011;20879;55.668;37.858;2022-08-19T11:10:50;4.97;;;2.67;;
34673;SDS011;20879;55.668;37.858;2022-08-19T11:13:25;6.68;;;2.35;;
34673;SDS011;20879;55.668;37.858;2022-08-19T11:15:59;4.28;;;2.13;;
34673;SDS011;20879;55.668;37.858;2022-08-19T11:18:34;7.18;;;2.67;;
34673;SDS011;20879;55.668;37.858;2022-08-19T11:21:07;3.33;;;1.52;;
34673;SDS011;20879;55.668;37.858;2022-08-19T11:23:38;6.65;;;2.35;;
34673;SDS011;20879;55.668;37.858;2022-08-19T11:26:08;7.82;;;2.13;;
34673;SDS011;20879;55.668;37.858;2022-08-19T11:28:37;4.10;;;2.10;;
34673;SDS011;20879;55.668;37.858;2022-08-19T11:31:09;8.02;;;2.80;;
34673;SDS011;20879;55.668;37.858;2022-08-19T11:33:40;6.15;;;2.45;;
34673;SDS011;20879;55.668;37.858;2022-08-19T11:36:16;4.55;;;2.25;;
34673;SDS011;20879;55.668;37.858;2022-08-19T11:38:46;9.68;;;2.80;;
34673;SDS011;20879;55.668;37.858;2022-08-19T11:41:16;13.77;;;3.30;;
34673;SDS011;20879;55.668;37.858;2022-08-19T11:43:49;7.47;;;3.17;;
34673;SDS011;20879;55.668;37.858;2022-08-19T11:48:50;3.90;;;1.80;;
34673;SDS011;20879;55.668;37.858;2022-08-19T11:51:23;7.90;;;2.90;;
34673;SDS011;20879;55.668;37.858;2022-08-19T11:53:53;8.15;;;3.10;;
34673;SDS011;20879;55.668;37.858;2022-08-19T11:56:24;3.40;;;1.80;;
34673;SDS011;20879;55.668;37.858;2022-08-19T11:58:54;6.22;;;2.65;;
34673;SDS011;20879;55.668;37.858;2022-08-19T12:01:25;7.00;;;2.40;;
34673;SDS011;20879;55.668;37.858;2022-08-19T12:03:55;8.88;;;3.03;;
34673;SDS011;20879;55.668;37.858;2022-08-19T12:06:29;8.02;;;3.00;;
34673;SDS011;20879;55.668;37.858;2022-08-19T12:09:01;5.70;;;2.58;;
34673;SDS011;20879;55.668;37.858;2022-08-19T12:11:33;11.27;;;3.78;;
34673;SDS011;20879;55.668;37.858;2022-08-19T12:14:03;6.28;;;2.80;;
34673;SDS011;20879;55.668;37.858;2022-08-19T12:16:32;9.20;;;3.83;;
34673;SDS011;20879;55.668;37.858;2022-08-19T12:19:10;10.73;;;3.65;;
34673;SDS011;20879;55.668;37.858;2022-08-19T12:21:49;4.50;;;2.42;;
34673;SDS011;20879;55.668;37.858;2022-08-19T12:24:21;13.68;;;3.30;;
34673;SDS011;20879;55.668;37.858;2022-08-19T12:26:51;8.70;;;2.83;;
34673;SDS011;20879;55.668;37.858;2022-08-19T12:29:26;8.38;;;3.10;;
34673;SDS011;20879;55.668;37.858;2022-08-19T12:31:57;16.42;;;3.45;;
34673;SDS011;20879;55.668;37.858;2022-08-19T12:34:31;10.10;;;3.30;;
34673;SDS011;20879;55.668;37.858;2022-08-19T12:37:03;7.65;;;3.05;;
34673;SDS011;20879;55.668;37.858;2022-08-19T12:39:35;13.23;;;3.40;;
34673;SDS011;20879;55.668;37.858;2022-08-19T12:42:05;7.15;;;2.85;;
34673;SDS011;20879;55.668;37.858;2022-08-19T12:44:35;5.88;;;2.85;;
34673;SDS011;20879;55.668;37.858;2022-08-19T12:47:07;9.13;;;3.10;;
34673;SDS011;20879;55.668;37.858;2022-08-19T12:49:39;9.60;;;3.03;;
34673;SDS011;20879;55.668;37.858;2022-08-19T12:57:20;6.88;;;2.88;;
34673;SDS011;20879;55.668;37.858;2022-08-19T12:59:59;11.30;;;3.38;;
34673;SDS011;20879;55.668;37.858;2022-08-19T13:02:31;7.90;;;2.83;;
34673;SDS011;20879;55.668;37.858;2022-08-19T13:05:06;8.95;;;2.97;;
34673;SDS011;20879;55.668;37.858;2022-08-19T13:07:37;9.32;;;3.28;;
34673;SDS011;20879;55.668;37.858;2022-08-19T13:10:10;21.10;;;3.30;;
34673;SDS011;20879;55.668;37.858;2022-08-19T13:12:43;8.93;;;3.17;;
34673;SDS011;20879;55.668;37.858;2022-08-19T13:15:14;8.48;;;4.07;;
34673;SDS011;20879;55.668;37.858;2022-08-19T13:17:51;7.68;;;4.03;;
34673;SDS011;20879;55.668;37.858;2022-08-19T13:20:22;10.50;;;3.70;;
34673;SDS011;20879;55.668;37.858;2022-08-19T13:22:51;8.60;;;3.42;;
34673;SDS011;20879;55.668;37.858;2022-08-19T13:25:23;5.45;;;3.17;;
34673;SDS011;20879;55.668;37.858;2022-08-19T13:27:55;11.18;;;3.60;;
34673;SDS011;20879;55.668;37.858;2022-08-19T13:30:24;7.10;;;3.80;;
34673;SDS011;20879;55.668;37.858;2022-08-19T13:33:07;7.50;;;3.13;;
34673;SDS011;20879;55.668;37.858;2022-08-19T13:35:43;9.65;;;4.70;;
34673;SDS011;20879;55.668;37.858;2022-08-19T13:38:16;13.60;;;7.25;;
34673;SDS011;20879;55.668;37.858;2022-08-19T13:40:48;9.93;;;6.70;;
34673;SDS011;20879;55.668;37.858;2022-08-19T13:43:21;9.00;;;5.35;;
34673;SDS011;20879;55.668;37.858;2022-08-19T13:45:53;16.73;;;6.00;;
34673;SDS011;20879;55.668;37.858;2022-08-19T13:48:24;9.32;;;4.68;;
34673;SDS011;20879;55.668;37.858;2022-08-19T13:50:54;9.05;;;4.70;;
34673;SDS011;20879;55.668;37.858;2022-08-19T13:53:24;10.55;;;4.88;;
34673;SDS011;20879;55.668;37.858;2022-08-19T13:55:54;6.65;;;4.38;;
34673;SDS011;20879;55.668;37.858;2022-08-19T13:58:25;9.55;;;4.38;;
34673;SDS011;20879;55.668;37.858;2022-08-19T14:00:54;9.93;;;4.85;;
34673;SDS011;20879;55.668;37.858;2022-08-19T14:03:25;10.90;;;4.40;;
34673;SDS011;20879;55.668;37.858;2022-08-19T14:05:54;9.75;;;4.75;;
34673;SDS011;20879;55.668;37.858;2022-08-19T14:08:23;12.20;;;5.07;;
34673;SDS011;20879;55.668;37.858;2022-08-19T14:10:54;8.77;;;5.40;;
34673;SDS011;20879;55.668;37.858;2022-08-19T14:13:25;11.57;;;6.00;;
34673;SDS011;20879;55.668;37.858;2022-08-19T14:18:25;12.80;;;7.88;;
34673;SDS011;20879;55.668;37.858;2022-08-19T14:20:56;8.63;;;6.55;;
34673;SDS011;20879;55.668;37.858;2022-08-19T14:23:26;12.93;;;6.28;;
34673;SDS011;20879;55.668;37.858;2022-08-19T14:26:02;14.20;;;6.97;;
34673;SDS011;20879;55.668;37.858;2022-08-19T14:28:35;14.52;;;7.00;;
34673;SDS011;20879;55.668;37.858;2022-08-19T14:31:05;12.93;;;8.05;;
34673;SDS011;20879;55.668;37.858;2022-08-19T14:33:34;14.60;;;9.73;;
34673;SDS011;20879;55.668;37.858;2022-08-19T14:36:07;14.68;;;10.80;;
34673;SDS011;20879;55.668;37.858;2022-08-19T14:38:36;16.15;;;10.70;;
34673;SDS011;20879;55.668;37.858;2022-08-19T14:41:11;18.05;;;10.68;;
34673;SDS011;20879;55.668;37.858;2022-08-19T14:43:44;17.60;;;10.15;;
34673;SDS011;20879;55.668;37.858;2022-08-19T14:46:15;13.57;;;9.70;;
34673;SDS011;20879;55.668;37.858;2022-08-19T14:48:47;15.98;;;9.05;;
34673;SDS011;20879;55.668;37.858;2022-08-19T14:51:20;14.88;;;7.05;;
34673;SDS011;20879;55.668;37.858;2022-08-19T14:53:50;14.57;;;6.97;;
34673;SDS011;20879;55.668;37.858;2022-08-19T14:56:21;13.95;;;6.85;;
34673;SDS011;20879;55.668;37.858;2022-08-19T14:58:54;9.07;;;6.80;;
34673;SDS011;20879;55.668;37.858;2022-08-19T15:01:27;16.20;;;6.90;;
34673;SDS011;20879;55.668;37.858;2022-08-19T15:03:56;11.70;;;6.97;;
34673;SDS011;20879;55.668;37.858;2022-08-19T15:06:26;9.00;;;5.97;;
34673;SDS011;20879;55.668;37.858;2022-08-19T15:08:57;12.18;;;5.95;;
34673;SDS011;20879;55.668;37.858;2022-08-19T15:11:34;9.43;;;5.57;;
34673;SDS011;20879;55.668;37.858;2022-08-19T15:14:06;7.95;;;5.45;;
34673;SDS011;20879;55.668;37.858;2022-08-19T15:16:36;11.77;;;5.80;;
34673;SDS011;20879;55.668;37.858;2022-08-19T15:19:09;13.95;;;5.82;;
34673;SDS011;20879;55.668;37.858;2022-08-19T15:21:38;11.32;;;5.28;;
34673;SDS011;20879;55.668;37.858;2022-08-19T15:24:08;9.70;;;4.95;;
34673;SDS011;20879;55.668;37.858;2022-08-19T15:26:37;11.43;;;4.60;;
34673;SDS011;20879;55.668;37.858;2022-08-19T15:29:09;10.57;;;4.85;;